sensor_id;sensor_type;location;lat;lon;timestamp;P1;durP1;ratioP1;P2;durP2;ratioP2
64674;SDS011;51090;51.512;11.332;2024-03-02T00:00:11;4.88;;;4.22;;
64674;SDS011;51090;51.512;11.332;2024-03-02T00:02:41;5.15;;;4.20;;
64674;SDS011;51090;51.512;11.332;2024-03-02T00:05:09;4.40;;;4.00;;
64674;SDS011;51090;51.512;11.332;2024-03-02T00:07:42;4.47;;;4.07;;
64674;SDS011;51090;51.512;11.332;2024-03-02T00:10:11;3.97;;;3.65;;
64674;SDS011;51090;51.512;11.332;2024-03-02T00:12:41;5.33;;;4.03;;
64674;SDS011;51090;51.512;11.332;2024-03-02T00:17:59;4.53;;;4.13;;
64674;SDS011;51090;51.512;11.332;2024-03-02T00:20:26;5.10;;;4.65;;
64674;SDS011;51090;51.512;11.332;2024-03-02T00:22:54;4.72;;;4.32;;
64674;SDS011;51090;51.512;11.332;2024-03-02T00:28:23;4.23;;;3.83;;
64674;SDS011;51090;51.512;11.332;2024-03-02T00:33:25;8.07;;;4.32;;
64674;SDS011;51090;51.512;11.332;2024-03-02T00:35:55;4.70;;;4.28;;
64674;SDS011;51090;51.512;11.332;2024-03-02T00:38:22;5.05;;;4.57;;
64674;SDS011;51090;51.512;11.332;2024-03-02T00:40:48;4.55;;;4.15;;
64674;SDS011;51090;51.512;11.332;2024-03-02T00:43:27;4.50;;;4.10;;
64674;SDS011;51090;51.512;11.332;2024-03-02T00:46:07;4.15;;;3.75;;
64674;SDS011;51090;51.512;11.332;2024-03-02T00:48:34;4.68;;;4.00;;
64674;SDS011;51090;51.512;11.332;2024-03-02T00:51:01;5.22;;;4.10;;
64674;SDS011;51090;51.512;11.332;2024-03-02T00:53:29;4.35;;;3.95;;
64674;SDS011;51090;51.512;11.332;2024-03-02T00:55:57;5.00;;;3.97;;
64674;SDS011;51090;51.512;11.332;2024-03-02T00:58:27;4.35;;;3.95;;
64674;SDS011;51090;51.512;11.332;2024-03-02T01:00:54;4.47;;;4.07;;
64674;SDS011;51090;51.512;11.332;2024-03-02T01:03:20;4.38;;;4.03;;
64674;SDS011;51090;51.512;11.332;2024-03-02T01:05:46;4.32;;;3.95;;
64674;SDS011;51090;51.512;11.332;2024-03-02T01:08:12;4.85;;;4.45;;
64674;SDS011;51090;51.512;11.332;2024-03-02T01:10:39;3.95;;;3.65;;
64674;SDS011;51090;51.512;11.332;2024-03-02T01:13:05;4.90;;;4.50;;
64674;SDS011;51090;51.512;11.332;2024-03-02T01:15:33;4.68;;;4.25;;
64674;SDS011;51090;51.512;11.332;2024-03-02T01:17:59;4.43;;;4.10;;
64674;SDS011;51090;51.512;11.332;2024-03-02T01:20:25;6.22;;;4.18;;
64674;SDS011;51090;51.512;11.332;2024-03-02T01:22:52;4.45;;;4.03;;
64674;SDS011;51090;51.512;11.332;2024-03-02T01:25:18;4.30;;;3.90;;
64674;SDS011;51090;51.512;11.332;2024-03-02T01:27:44;3.90;;;3.60;;
64674;SDS011;51090;51.512;11.332;2024-03-02T01:30:11;4.70;;;4.30;;
64674;SDS011;51090;51.512;11.332;2024-03-02T01:32:38;4.15;;;3.65;;
64674;SDS011;51090;51.512;11.332;2024-03-02T01:35:04;4.63;;;4.20;;
64674;SDS011;51090;51.512;11.332;2024-03-02T01:37:31;4.97;;;4.22;;
64674;SDS011;51090;51.512;11.332;2024-03-02T01:39:58;4.43;;;4.07;;
64674;SDS011;51090;51.512;11.332;2024-03-02T01:42:24;4.85;;;4.45;;
64674;SDS011;51090;51.512;11.332;2024-03-02T01:44:51;6.30;;;4.38;;
64674;SDS011;51090;51.512;11.332;2024-03-02T01:47:17;4.47;;;4.07;;
64674;SDS011;51090;51.512;11.332;2024-03-02T01:49:43;4.82;;;4.43;;
64674;SDS011;51090;51.512;11.332;2024-03-02T01:52:09;5.15;;;4.13;;
64674;SDS011;51090;51.512;11.332;2024-03-02T01:54:36;4.35;;;4.05;;
64674;SDS011;51090;51.512;11.332;2024-03-02T01:57:02;6.40;;;4.72;;
64674;SDS011;51090;51.512;11.332;2024-03-02T01:59:29;4.13;;;3.83;;
64674;SDS011;51090;51.512;11.332;2024-03-02T02:01:56;4.72;;;4.32;;
64674;SDS011;51090;51.512;11.332;2024-03-02T02:04:22;5.10;;;4.60;;
64674;SDS011;51090;51.512;11.332;2024-03-02T02:06:52;4.68;;;4.28;;
64674;SDS011;51090;51.512;11.332;2024-03-02T02:09:20;4.47;;;4.07;;
64674;SDS011;51090;51.512;11.332;2024-03-02T02:11:46;4.57;;;4.18;;
64674;SDS011;51090;51.512;11.332;2024-03-02T02:14:12;7.18;;;4.53;;
64674;SDS011;51090;51.512;11.332;2024-03-02T02:16:40;6.35;;;4.72;;
64674;SDS011;51090;51.512;11.332;2024-03-02T02:19:06;4.70;;;4.32;;
64674;SDS011;51090;51.512;11.332;2024-03-02T02:21:32;5.35;;;4.35;;
64674;SDS011;51090;51.512;11.332;2024-03-02T02:23:58;5.10;;;4.60;;
64674;SDS011;51090;51.512;11.332;2024-03-02T02:26:27;4.60;;;4.20;;
64674;SDS011;51090;51.512;11.332;2024-03-02T02:28:54;4.57;;;4.18;;
64674;SDS011;51090;51.512;11.332;2024-03-02T02:31:20;5.25;;;4.35;;
64674;SDS011;51090;51.512;11.332;2024-03-02T02:33:46;4.50;;;4.10;;
64674;SDS011;51090;51.512;11.332;2024-03-02T02:36:12;5.53;;;4.32;;
64674;SDS011;51090;51.512;11.332;2024-03-02T02:38:39;5.30;;;4.85;;
64674;SDS011;51090;51.512;11.332;2024-03-02T02:41:09;5.45;;;4.70;;
64674;SDS011;51090;51.512;11.332;2024-03-02T02:43:35;5.18;;;4.78;;
64674;SDS011;51090;51.512;11.332;2024-03-02T02:46:01;5.03;;;4.63;;
64674;SDS011;51090;51.512;11.332;2024-03-02T02:48:27;5.05;;;4.55;;
64674;SDS011;51090;51.512;11.332;2024-03-02T02:50:53;5.28;;;4.60;;
64674;SDS011;51090;51.512;11.332;2024-03-02T02:53:19;5.78;;;4.88;;
64674;SDS011;51090;51.512;11.332;2024-03-02T02:55:47;5.45;;;4.95;;
64674;SDS011;51090;51.512;11.332;2024-03-02T02:58:13;6.90;;;4.50;;
64674;SDS011;51090;51.512;11.332;2024-03-02T03:00:39;5.45;;;4.07;;
64674;SDS011;51090;51.512;11.332;2024-03-02T03:03:05;5.03;;;4.32;;
64674;SDS011;51090;51.512;11.332;2024-03-02T03:05:31;4.70;;;4.30;;
64674;SDS011;51090;51.512;11.332;2024-03-02T03:07:57;5.38;;;4.85;;
64674;SDS011;51090;51.512;11.332;2024-03-02T03:10:23;5.00;;;4.13;;
64674;SDS011;51090;51.512;11.332;2024-03-02T03:12:51;4.75;;;4.35;;
64674;SDS011;51090;51.512;11.332;2024-03-02T03:15:18;5.30;;;4.25;;
64674;SDS011;51090;51.512;11.332;2024-03-02T03:17:44;4.75;;;4.28;;
64674;SDS011;51090;51.512;11.332;2024-03-02T03:20:11;5.22;;;4.82;;
64674;SDS011;51090;51.512;11.332;2024-03-02T03:22:39;5.50;;;5.03;;
64674;SDS011;51090;51.512;11.332;2024-03-02T03:25:05;4.55;;;4.15;;
64674;SDS011;51090;51.512;11.332;2024-03-02T03:27:35;5.00;;;4.57;;
64674;SDS011;51090;51.512;11.332;2024-03-02T03:30:01;5.30;;;4.47;;
64674;SDS011;51090;51.512;11.332;2024-03-02T03:32:28;4.30;;;3.92;;
64674;SDS011;51090;51.512;11.332;2024-03-02T03:34:54;5.47;;;4.68;;
64674;SDS011;51090;51.512;11.332;2024-03-02T03:37:20;5.13;;;4.72;;
64674;SDS011;51090;51.512;11.332;2024-03-02T03:39:46;6.32;;;4.57;;
64674;SDS011;51090;51.512;11.332;2024-03-02T03:42:12;5.60;;;5.10;;
64674;SDS011;51090;51.512;11.332;2024-03-02T03:44:38;5.10;;;4.60;;
64674;SDS011;51090;51.512;11.332;2024-03-02T03:47:06;4.57;;;4.22;;
64674;SDS011;51090;51.512;11.332;2024-03-02T03:49:32;4.88;;;4.47;;
64674;SDS011;51090;51.512;11.332;2024-03-02T03:51:58;5.13;;;4.57;;
64674;SDS011;51090;51.512;11.332;2024-03-02T03:54:25;4.35;;;3.97;;
64674;SDS011;51090;51.512;11.332;2024-03-02T03:56:51;5.72;;;4.50;;
64674;SDS011;51090;51.512;11.332;2024-03-02T03:59:17;5.63;;;5.22;;
64674;SDS011;51090;51.512;11.332;2024-03-02T04:01:43;5.40;;;4.57;;
64674;SDS011;51090;51.512;11.332;2024-03-02T04:04:09;4.50;;;4.10;;
64674;SDS011;51090;51.512;11.332;2024-03-02T04:06:35;5.32;;;4.45;;
64674;SDS011;51090;51.512;11.332;2024-03-02T04:09:01;5.32;;;4.82;;
64674;SDS011;51090;51.512;11.332;2024-03-02T04:11:28;5.15;;;4.65;;
64674;SDS011;51090;51.512;11.332;2024-03-02T04:13:55;4.40;;;4.03;;
64674;SDS011;51090;51.512;11.332;2024-03-02T04:16:21;5.55;;;4.95;;
64674;SDS011;51090;51.512;11.332;2024-03-02T04:18:48;4.50;;;4.15;;
64674;SDS011;51090;51.512;11.332;2024-03-02T04:21:14;4.43;;;4.03;;
64674;SDS011;51090;51.512;11.332;2024-03-02T04:23:41;7.53;;;4.70;;
64674;SDS011;51090;51.512;11.332;2024-03-02T04:26:07;4.45;;;4.07;;
64674;SDS011;51090;51.512;11.332;2024-03-02T04:28:33;4.43;;;4.05;;
64674;SDS011;51090;51.512;11.332;2024-03-02T04:31:00;4.45;;;4.15;;
64674;SDS011;51090;51.512;11.332;2024-03-02T04:33:26;6.57;;;4.55;;
64674;SDS011;51090;51.512;11.332;2024-03-02T04:35:53;4.68;;;3.88;;
64674;SDS011;51090;51.512;11.332;2024-03-02T04:38:19;4.95;;;4.15;;
64674;SDS011;51090;51.512;11.332;2024-03-02T04:40:45;4.22;;;3.92;;
64674;SDS011;51090;51.512;11.332;2024-03-02T04:43:11;5.00;;;4.50;;
64674;SDS011;51090;51.512;11.332;2024-03-02T04:45:40;5.20;;;4.70;;
64674;SDS011;51090;51.512;11.332;2024-03-02T04:48:06;5.30;;;4.80;;
64674;SDS011;51090;51.512;11.332;2024-03-02T04:50:33;4.72;;;4.32;;
64674;SDS011;51090;51.512;11.332;2024-03-02T04:53:00;5.30;;;4.90;;
64674;SDS011;51090;51.512;11.332;2024-03-02T04:55:26;4.55;;;4.15;;
64674;SDS011;51090;51.512;11.332;2024-03-02T04:57:52;4.50;;;4.13;;
64674;SDS011;51090;51.512;11.332;2024-03-02T05:00:21;5.25;;;4.72;;
64674;SDS011;51090;51.512;11.332;2024-03-02T05:02:47;4.68;;;4.28;;
64674;SDS011;51090;51.512;11.332;2024-03-02T05:05:13;5.10;;;4.70;;
64674;SDS011;51090;51.512;11.332;2024-03-02T05:07:42;5.28;;;4.88;;
64674;SDS011;51090;51.512;11.332;2024-03-02T05:10:09;5.25;;;4.85;;
64674;SDS011;51090;51.512;11.332;2024-03-02T05:12:36;4.70;;;4.30;;
64674;SDS011;51090;51.512;11.332;2024-03-02T05:15:09;6.78;;;6.13;;
64674;SDS011;51090;51.512;11.332;2024-03-02T05:17:36;6.85;;;6.13;;
64674;SDS011;51090;51.512;11.332;2024-03-02T05:20:03;5.30;;;4.90;;
64674;SDS011;51090;51.512;11.332;2024-03-02T05:22:30;6.53;;;5.93;;
64674;SDS011;51090;51.512;11.332;2024-03-02T05:24:58;5.63;;;4.93;;
64674;SDS011;51090;51.512;11.332;2024-03-02T05:27:25;5.88;;;5.15;;
64674;SDS011;51090;51.512;11.332;2024-03-02T05:29:52;5.22;;;4.72;;
64674;SDS011;51090;51.512;11.332;2024-03-02T05:32:18;5.55;;;5.05;;
64674;SDS011;51090;51.512;11.332;2024-03-02T05:34:44;5.60;;;5.00;;
64674;SDS011;51090;51.512;11.332;2024-03-02T05:37:11;7.28;;;6.25;;
64674;SDS011;51090;51.512;11.332;2024-03-02T05:39:37;5.95;;;5.45;;
64674;SDS011;51090;51.512;11.332;2024-03-02T05:42:03;6.55;;;5.95;;
64674;SDS011;51090;51.512;11.332;2024-03-02T05:44:30;6.32;;;5.72;;
64674;SDS011;51090;51.512;11.332;2024-03-02T05:46:57;6.63;;;6.03;;
64674;SDS011;51090;51.512;11.332;2024-03-02T05:49:23;5.60;;;5.10;;
64674;SDS011;51090;51.512;11.332;2024-03-02T05:51:49;6.28;;;5.55;;
64674;SDS011;51090;51.512;11.332;2024-03-02T05:54:15;6.70;;;6.05;;
64674;SDS011;51090;51.512;11.332;2024-03-02T05:56:41;6.45;;;5.25;;
64674;SDS011;51090;51.512;11.332;2024-03-02T05:59:07;5.60;;;4.68;;
64674;SDS011;51090;51.512;11.332;2024-03-02T06:01:38;5.88;;;5.28;;
64674;SDS011;51090;51.512;11.332;2024-03-02T06:04:07;6.50;;;5.38;;
64674;SDS011;51090;51.512;11.332;2024-03-02T06:06:37;4.60;;;4.20;;
64674;SDS011;51090;51.512;11.332;2024-03-02T06:09:04;4.75;;;4.18;;
64674;SDS011;51090;51.512;11.332;2024-03-02T06:11:34;5.40;;;4.90;;
64674;SDS011;51090;51.512;11.332;2024-03-02T06:14:01;5.97;;;5.47;;
64674;SDS011;51090;51.512;11.332;2024-03-02T06:16:28;5.50;;;5.00;;
64674;SDS011;51090;51.512;11.332;2024-03-02T06:18:55;5.03;;;4.60;;
64674;SDS011;51090;51.512;11.332;2024-03-02T06:21:23;5.97;;;5.38;;
64674;SDS011;51090;51.512;11.332;2024-03-02T06:23:49;5.95;;;5.45;;
64674;SDS011;51090;51.512;11.332;2024-03-02T06:26:16;5.47;;;4.97;;
64674;SDS011;51090;51.512;11.332;2024-03-02T06:28:42;5.32;;;4.93;;
64674;SDS011;51090;51.512;11.332;2024-03-02T06:31:09;5.65;;;5.15;;
64674;SDS011;51090;51.512;11.332;2024-03-02T06:33:35;5.57;;;5.07;;
64674;SDS011;51090;51.512;11.332;2024-03-02T06:36:01;5.53;;;5.03;;
64674;SDS011;51090;51.512;11.332;2024-03-02T06:38:28;5.90;;;5.13;;
64674;SDS011;51090;51.512;11.332;2024-03-02T06:40:54;6.40;;;5.80;;
64674;SDS011;51090;51.512;11.332;2024-03-02T06:43:20;5.50;;;5.00;;
64674;SDS011;51090;51.512;11.332;2024-03-02T06:45:50;5.85;;;5.35;;
64674;SDS011;51090;51.512;11.332;2024-03-02T06:48:17;6.05;;;5.55;;
64674;SDS011;51090;51.512;11.332;2024-03-02T06:50:48;6.45;;;5.85;;
64674;SDS011;51090;51.512;11.332;2024-03-02T06:53:15;6.03;;;5.50;;
64674;SDS011;51090;51.512;11.332;2024-03-02T06:55:46;6.40;;;5.70;;
64674;SDS011;51090;51.512;11.332;2024-03-02T06:58:12;5.78;;;5.20;;
64674;SDS011;51090;51.512;11.332;2024-03-02T07:00:42;5.22;;;4.80;;
64674;SDS011;51090;51.512;11.332;2024-03-02T07:03:12;6.60;;;6.00;;
64674;SDS011;51090;51.512;11.332;2024-03-02T07:05:38;6.60;;;6.10;;
64674;SDS011;51090;51.512;11.332;2024-03-02T07:08:05;8.73;;;7.93;;
64674;SDS011;51090;51.512;11.332;2024-03-02T07:10:31;8.88;;;7.97;;
64674;SDS011;51090;51.512;11.332;2024-03-02T07:12:57;7.78;;;7.13;;
64674;SDS011;51090;51.512;11.332;2024-03-02T07:15:23;8.00;;;7.20;;
64674;SDS011;51090;51.512;11.332;2024-03-02T07:18:04;8.30;;;7.43;;
64674;SDS011;51090;51.512;11.332;2024-03-02T07:20:30;8.10;;;7.50;;
64674;SDS011;51090;51.512;11.332;2024-03-02T07:22:56;7.93;;;7.20;;
64674;SDS011;51090;51.512;11.332;2024-03-02T07:25:22;8.00;;;7.35;;
64674;SDS011;51090;51.512;11.332;2024-03-02T07:27:48;6.05;;;5.45;;
64674;SDS011;51090;51.512;11.332;2024-03-02T07:30:15;9.00;;;7.13;;
64674;SDS011;51090;51.512;11.332;2024-03-02T07:32:42;7.57;;;6.90;;
64674;SDS011;51090;51.512;11.332;2024-03-02T07:35:10;8.00;;;7.30;;
64674;SDS011;51090;51.512;11.332;2024-03-02T07:37:38;7.55;;;6.72;;
64674;SDS011;51090;51.512;11.332;2024-03-02T07:40:05;7.07;;;6.40;;
64674;SDS011;51090;51.512;11.332;2024-03-02T07:42:39;6.28;;;5.68;;
64674;SDS011;51090;51.512;11.332;2024-03-02T07:45:06;6.18;;;5.65;;
64674;SDS011;51090;51.512;11.332;2024-03-02T07:47:33;6.80;;;5.43;;
64674;SDS011;51090;51.512;11.332;2024-03-02T07:50:00;7.07;;;5.78;;
64674;SDS011;51090;51.512;11.332;2024-03-02T07:52:26;6.53;;;6.03;;
64674;SDS011;51090;51.512;11.332;2024-03-02T07:54:52;7.05;;;6.45;;
64674;SDS011;51090;51.512;11.332;2024-03-02T07:57:19;6.65;;;6.10;;
64674;SDS011;51090;51.512;11.332;2024-03-02T07:59:46;6.45;;;5.85;;
64674;SDS011;51090;51.512;11.332;2024-03-02T08:02:12;6.78;;;6.18;;
64674;SDS011;51090;51.512;11.332;2024-03-02T08:04:38;6.80;;;6.10;;
64674;SDS011;51090;51.512;11.332;2024-03-02T08:07:05;7.10;;;6.47;;
64674;SDS011;51090;51.512;11.332;2024-03-02T08:09:32;6.65;;;6.05;;
64674;SDS011;51090;51.512;11.332;2024-03-02T08:11:58;6.30;;;5.70;;
64674;SDS011;51090;51.512;11.332;2024-03-02T08:14:24;6.68;;;6.05;;
64674;SDS011;51090;51.512;11.332;2024-03-02T08:16:50;7.00;;;6.40;;
64674;SDS011;51090;51.512;11.332;2024-03-02T08:19:16;6.78;;;6.15;;
64674;SDS011;51090;51.512;11.332;2024-03-02T08:21:43;6.45;;;5.90;;
64674;SDS011;51090;51.512;11.332;2024-03-02T08:24:09;6.43;;;5.93;;
64674;SDS011;51090;51.512;11.332;2024-03-02T08:26:35;6.45;;;5.85;;
64674;SDS011;51090;51.512;11.332;2024-03-02T08:29:01;6.47;;;5.88;;
64674;SDS011;51090;51.512;11.332;2024-03-02T08:31:28;8.30;;;6.30;;
64674;SDS011;51090;51.512;11.332;2024-03-02T08:33:55;6.32;;;5.82;;
64674;SDS011;51090;51.512;11.332;2024-03-02T08:36:21;7.03;;;6.32;;
64674;SDS011;51090;51.512;11.332;2024-03-02T08:38:49;7.07;;;6.38;;
64674;SDS011;51090;51.512;11.332;2024-03-02T08:41:15;6.63;;;5.65;;
64674;SDS011;51090;51.512;11.332;2024-03-02T08:43:42;6.18;;;5.57;;
64674;SDS011;51090;51.512;11.332;2024-03-02T08:46:08;7.43;;;6.72;;
64674;SDS011;51090;51.512;11.332;2024-03-02T08:48:34;6.25;;;5.72;;
64674;SDS011;51090;51.512;11.332;2024-03-02T08:51:00;5.68;;;5.07;;
64674;SDS011;51090;51.512;11.332;2024-03-02T08:53:27;6.68;;;6.07;;
64674;SDS011;51090;51.512;11.332;2024-03-02T08:55:52;5.82;;;5.28;;
64674;SDS011;51090;51.512;11.332;2024-03-02T08:58:20;6.55;;;5.95;;
64674;SDS011;51090;51.512;11.332;2024-03-02T09:00:46;6.05;;;5.60;;
64674;SDS011;51090;51.512;11.332;2024-03-02T09:03:12;6.07;;;5.30;;
64674;SDS011;51090;51.512;11.332;2024-03-02T09:05:39;6.32;;;5.72;;
64674;SDS011;51090;51.512;11.332;2024-03-02T09:08:07;5.72;;;5.22;;
64674;SDS011;51090;51.512;11.332;2024-03-02T09:10:33;5.95;;;5.43;;
64674;SDS011;51090;51.512;11.332;2024-03-02T09:12:59;7.45;;;5.47;;
64674;SDS011;51090;51.512;11.332;2024-03-02T09:15:25;6.30;;;5.70;;
64674;SDS011;51090;51.512;11.332;2024-03-02T09:17:51;6.15;;;5.55;;
64674;SDS011;51090;51.512;11.332;2024-03-02T09:20:17;6.20;;;5.70;;
64674;SDS011;51090;51.512;11.332;2024-03-02T09:22:42;6.75;;;5.68;;
64674;SDS011;51090;51.512;11.332;2024-03-02T09:25:08;6.30;;;5.15;;
64674;SDS011;51090;51.512;11.332;2024-03-02T09:27:37;6.05;;;5.50;;
64674;SDS011;51090;51.512;11.332;2024-03-02T09:30:06;5.60;;;5.07;;
64674;SDS011;51090;51.512;11.332;2024-03-02T09:32:35;5.50;;;5.00;;
64674;SDS011;51090;51.512;11.332;2024-03-02T09:35:02;4.70;;;4.30;;
64674;SDS011;51090;51.512;11.332;2024-03-02T09:37:29;4.82;;;4.43;;
64674;SDS011;51090;51.512;11.332;2024-03-02T09:39:55;5.80;;;5.20;;
64674;SDS011;51090;51.512;11.332;2024-03-02T09:42:21;4.90;;;4.32;;
64674;SDS011;51090;51.512;11.332;2024-03-02T09:44:47;5.05;;;4.55;;
64674;SDS011;51090;51.512;11.332;2024-03-02T09:47:13;5.47;;;4.97;;
64674;SDS011;51090;51.512;11.332;2024-03-02T09:49:39;5.85;;;5.32;;
64674;SDS011;51090;51.512;11.332;2024-03-02T09:52:05;6.35;;;4.50;;
64674;SDS011;51090;51.512;11.332;2024-03-02T09:54:32;5.22;;;4.63;;
64674;SDS011;51090;51.512;11.332;2024-03-02T09:56:58;5.10;;;4.53;;
64674;SDS011;51090;51.512;11.332;2024-03-02T09:59:24;4.80;;;4.40;;
64674;SDS011;51090;51.512;11.332;2024-03-02T10:01:56;6.45;;;4.60;;
64674;SDS011;51090;51.512;11.332;2024-03-02T10:04:25;4.95;;;4.45;;
64674;SDS011;51090;51.512;11.332;2024-03-02T10:07:01;5.47;;;4.47;;
64674;SDS011;51090;51.512;11.332;2024-03-02T10:09:39;4.07;;;3.78;;
64674;SDS011;51090;51.512;11.332;2024-03-02T10:12:40;4.28;;;3.83;;
64674;SDS011;51090;51.512;11.332;2024-03-02T10:15:06;5.20;;;4.70;;
64674;SDS011;51090;51.512;11.332;2024-03-02T10:17:32;5.32;;;4.82;;
64674;SDS011;51090;51.512;11.332;2024-03-02T10:19:58;5.90;;;4.45;;
64674;SDS011;51090;51.512;11.332;2024-03-02T10:22:24;4.45;;;4.05;;
64674;SDS011;51090;51.512;11.332;2024-03-02T10:24:51;5.18;;;4.07;;
64674;SDS011;51090;51.512;11.332;2024-03-02T10:27:19;4.68;;;4.28;;
64674;SDS011;51090;51.512;11.332;2024-03-02T10:29:52;5.78;;;3.85;;
64674;SDS011;51090;51.512;11.332;2024-03-02T10:32:18;4.40;;;4.10;;
64674;SDS011;51090;51.512;11.332;2024-03-02T10:34:47;4.00;;;3.67;;
64674;SDS011;51090;51.512;11.332;2024-03-02T10:37:15;4.53;;;4.13;;
64674;SDS011;51090;51.512;11.332;2024-03-02T10:39:42;4.28;;;3.58;;
64674;SDS011;51090;51.512;11.332;2024-03-02T10:42:08;4.03;;;3.67;;
64674;SDS011;51090;51.512;11.332;2024-03-02T10:44:34;3.72;;;3.42;;
64674;SDS011;51090;51.512;11.332;2024-03-02T10:47:01;4.78;;;3.85;;
64674;SDS011;51090;51.512;11.332;2024-03-02T10:49:29;4.05;;;3.65;;
64674;SDS011;51090;51.512;11.332;2024-03-02T10:51:58;4.82;;;4.13;;
64674;SDS011;51090;51.512;11.332;2024-03-02T10:54:24;3.92;;;3.45;;
64674;SDS011;51090;51.512;11.332;2024-03-02T10:57:01;4.25;;;3.88;;
64674;SDS011;51090;51.512;11.332;2024-03-02T10:59:35;3.97;;;3.67;;
64674;SDS011;51090;51.512;11.332;2024-03-02T11:02:03;3.80;;;3.50;;
64674;SDS011;51090;51.512;11.332;2024-03-02T11:04:32;3.90;;;3.60;;
64674;SDS011;51090;51.512;11.332;2024-03-02T11:07:04;3.75;;;3.45;;
64674;SDS011;51090;51.512;11.332;2024-03-02T11:09:35;3.95;;;3.63;;
64674;SDS011;51090;51.512;11.332;2024-03-02T11:12:12;4.65;;;4.25;;
64674;SDS011;51090;51.512;11.332;2024-03-02T11:15:02;3.33;;;3.03;;
64674;SDS011;51090;51.512;11.332;2024-03-02T11:17:39;4.15;;;3.72;;
64674;SDS011;51090;51.512;11.332;2024-03-02T11:20:06;4.18;;;3.78;;
64674;SDS011;51090;51.512;11.332;2024-03-02T11:22:34;3.33;;;3.00;;
64674;SDS011;51090;51.512;11.332;2024-03-02T11:25:01;3.40;;;3.10;;
64674;SDS011;51090;51.512;11.332;2024-03-02T11:32:59;3.38;;;3.08;;
64674;SDS011;51090;51.512;11.332;2024-03-02T11:35:26;4.57;;;3.45;;
64674;SDS011;51090;51.512;11.332;2024-03-02T11:37:55;3.75;;;3.30;;
64674;SDS011;51090;51.512;11.332;2024-03-02T11:40:27;3.13;;;2.92;;
64674;SDS011;51090;51.512;11.332;2024-03-02T11:42:54;3.45;;;3.15;;
64674;SDS011;51090;51.512;11.332;2024-03-02T11:45:26;3.10;;;2.80;;
64674;SDS011;51090;51.512;11.332;2024-03-02T11:50:35;2.67;;;2.17;;
64674;SDS011;51090;51.512;11.332;2024-03-02T11:53:06;2.80;;;2.60;;
64674;SDS011;51090;51.512;11.332;2024-03-02T11:55:35;2.85;;;2.65;;
64674;SDS011;51090;51.512;11.332;2024-03-02T11:58:03;2.97;;;2.67;;
64674;SDS011;51090;51.512;11.332;2024-03-02T12:00:29;3.00;;;2.70;;
64674;SDS011;51090;51.512;11.332;2024-03-02T12:03:02;2.88;;;2.67;;
64674;SDS011;51090;51.512;11.332;2024-03-02T12:05:30;3.30;;;3.00;;
64674;SDS011;51090;51.512;11.332;2024-03-02T12:07:57;2.95;;;2.60;;
64674;SDS011;51090;51.512;11.332;2024-03-02T12:10:31;2.85;;;2.65;;
64674;SDS011;51090;51.512;11.332;2024-03-02T12:13:02;4.40;;;3.17;;
64674;SDS011;51090;51.512;11.332;2024-03-02T12:15:30;3.73;;;2.87;;
64674;SDS011;51090;51.512;11.332;2024-03-02T12:17:58;2.67;;;2.47;;
64674;SDS011;51090;51.512;11.332;2024-03-02T12:20:26;3.08;;;2.78;;
64674;SDS011;51090;51.512;11.332;2024-03-02T12:22:54;2.88;;;2.67;;
64674;SDS011;51090;51.512;11.332;2024-03-02T12:25:23;3.38;;;3.05;;
64674;SDS011;51090;51.512;11.332;2024-03-02T12:27:50;3.28;;;2.72;;
64674;SDS011;51090;51.512;11.332;2024-03-02T12:30:19;2.65;;;2.45;;
64674;SDS011;51090;51.512;11.332;2024-03-02T12:32:46;2.67;;;2.50;;
64674;SDS011;51090;51.512;11.332;2024-03-02T12:35:13;2.50;;;2.30;;
64674;SDS011;51090;51.512;11.332;2024-03-02T12:37:47;3.17;;;2.78;;
64674;SDS011;51090;51.512;11.332;2024-03-02T12:40:15;2.92;;;2.63;;
64674;SDS011;51090;51.512;11.332;2024-03-02T12:42:47;2.45;;;2.25;;
64674;SDS011;51090;51.512;11.332;2024-03-02T12:45:13;2.45;;;2.25;;
64674;SDS011;51090;51.512;11.332;2024-03-02T12:47:41;2.58;;;2.38;;
64674;SDS011;51090;51.512;11.332;2024-03-02T12:50:08;2.28;;;2.08;;
64674;SDS011;51090;51.512;11.332;2024-03-02T12:52:35;2.90;;;2.58;;
64674;SDS011;51090;51.512;11.332;2024-03-02T12:55:01;2.13;;;2.03;;
64674;SDS011;51090;51.512;11.332;2024-03-02T12:57:31;3.30;;;3.00;;
64674;SDS011;51090;51.512;11.332;2024-03-02T12:59:58;3.42;;;2.95;;
64674;SDS011;51090;51.512;11.332;2024-03-02T13:02:28;3.35;;;2.28;;
64674;SDS011;51090;51.512;11.332;2024-03-02T13:04:56;2.55;;;2.35;;
64674;SDS011;51090;51.512;11.332;2024-03-02T13:07:23;2.15;;;1.95;;
64674;SDS011;51090;51.512;11.332;2024-03-02T13:09:50;2.42;;;2.22;;
64674;SDS011;51090;51.512;11.332;2024-03-02T13:12:21;3.05;;;2.75;;
64674;SDS011;51090;51.512;11.332;2024-03-02T13:14:54;2.78;;;2.55;;
64674;SDS011;51090;51.512;11.332;2024-03-02T13:17:20;2.35;;;2.05;;
64674;SDS011;51090;51.512;11.332;2024-03-02T13:19:56;2.35;;;2.03;;
64674;SDS011;51090;51.512;11.332;2024-03-02T13:22:24;1.67;;;1.58;;
64674;SDS011;51090;51.512;11.332;2024-03-02T13:24:51;1.58;;;1.48;;
64674;SDS011;51090;51.512;11.332;2024-03-02T13:27:21;1.90;;;1.67;;
64674;SDS011;51090;51.512;11.332;2024-03-02T13:29:49;2.20;;;1.95;;
64674;SDS011;51090;51.512;11.332;2024-03-02T13:32:15;2.22;;;2.08;;
64674;SDS011;51090;51.512;11.332;2024-03-02T13:34:42;3.15;;;2.10;;
64674;SDS011;51090;51.512;11.332;2024-03-02T13:37:08;2.03;;;1.88;;
64674;SDS011;51090;51.512;11.332;2024-03-02T13:39:35;1.85;;;1.70;;
64674;SDS011;51090;51.512;11.332;2024-03-02T13:42:10;2.00;;;1.85;;
64674;SDS011;51090;51.512;11.332;2024-03-02T13:44:39;3.33;;;2.20;;
64674;SDS011;51090;51.512;11.332;2024-03-02T13:47:05;2.50;;;2.30;;
64674;SDS011;51090;51.512;11.332;2024-03-02T13:49:31;2.45;;;2.25;;
64674;SDS011;51090;51.512;11.332;2024-03-02T13:52:05;3.10;;;2.58;;
64674;SDS011;51090;51.512;11.332;2024-03-02T13:54:42;3.20;;;2.70;;
64674;SDS011;51090;51.512;11.332;2024-03-02T13:57:10;4.53;;;2.45;;
64674;SDS011;51090;51.512;11.332;2024-03-02T13:59:38;2.80;;;2.42;;
64674;SDS011;51090;51.512;11.332;2024-03-02T14:02:07;2.92;;;2.65;;
64674;SDS011;51090;51.512;11.332;2024-03-02T14:04:34;2.70;;;2.50;;
64674;SDS011;51090;51.512;11.332;2024-03-02T14:07:01;3.13;;;2.92;;
64674;SDS011;51090;51.512;11.332;2024-03-02T14:09:27;2.80;;;2.60;;
64674;SDS011;51090;51.512;11.332;2024-03-02T14:11:54;3.35;;;3.05;;
64674;SDS011;51090;51.512;11.332;2024-03-02T14:14:20;3.08;;;2.70;;
64674;SDS011;51090;51.512;11.332;2024-03-02T14:16:46;3.28;;;2.97;;
64674;SDS011;51090;51.512;11.332;2024-03-02T14:19:14;2.67;;;2.47;;
64674;SDS011;51090;51.512;11.332;2024-03-02T14:21:41;4.25;;;2.75;;
64674;SDS011;51090;51.512;11.332;2024-03-02T14:24:07;2.85;;;2.45;;
64674;SDS011;51090;51.512;11.332;2024-03-02T14:26:33;3.58;;;3.00;;
64674;SDS011;51090;51.512;11.332;2024-03-02T14:28:59;2.95;;;2.65;;
64674;SDS011;51090;51.512;11.332;2024-03-02T14:31:26;3.25;;;2.95;;
64674;SDS011;51090;51.512;11.332;2024-03-02T14:33:53;2.88;;;2.67;;
64674;SDS011;51090;51.512;11.332;2024-03-02T14:36:19;3.38;;;3.03;;
64674;SDS011;51090;51.512;11.332;2024-03-02T14:38:45;4.50;;;3.22;;
64674;SDS011;51090;51.512;11.332;2024-03-02T14:41:11;3.50;;;3.20;;
64674;SDS011;51090;51.512;11.332;2024-03-02T14:43:38;3.33;;;3.03;;
64674;SDS011;51090;51.512;11.332;2024-03-02T14:46:04;3.55;;;3.25;;
64674;SDS011;51090;51.512;11.332;2024-03-02T14:48:30;3.20;;;2.88;;
64674;SDS011;51090;51.512;11.332;2024-03-02T14:50:56;3.08;;;2.88;;